createdAt,value
2023-05-24T00:01:01.349Z,14.75
2023-05-24T00:03:08.675Z,15.38
2023-05-24T00:05:16.172Z,16.15
2023-05-24T00:07:25.153Z,22.55
2023-05-24T00:09:32.742Z,21.95
2023-05-24T00:11:40.033Z,14.68
2023-05-24T00:13:47.410Z,14.02
2023-05-24T00:15:54.753Z,13.20
2023-05-24T00:18:02.057Z,13.85
2023-05-24T00:20:10.519Z,13.30
2023-05-24T00:22:18.136Z,13.30
2023-05-24T00:24:27.167Z,14.63
2023-05-24T00:26:34.852Z,13.85
2023-05-24T00:28:42.610Z,13.50
2023-05-24T00:30:50.263Z,14.38
2023-05-24T00:32:57.506Z,13.02
2023-05-24T00:37:46.445Z,14.55
2023-05-24T00:39:56.098Z,13.45
2023-05-24T00:42:03.249Z,14.77
2023-05-24T00:44:12.062Z,15.32
2023-05-24T00:46:21.548Z,14.00
2023-05-24T00:48:29.985Z,13.38
2023-05-24T00:50:37.534Z,12.85
2023-05-24T00:52:47.469Z,13.25
2023-05-24T00:54:55.075Z,12.88
2023-05-24T00:57:03.984Z,13.85
2023-05-24T00:59:11.986Z,12.85
2023-05-24T01:01:19.918Z,17.88
2023-05-24T01:03:27.000Z,12.25
2023-05-24T01:05:34.461Z,12.85
2023-05-24T01:07:54.598Z,12.73
2023-05-24T01:10:10.894Z,13.25
2023-05-24T01:12:27.025Z,12.52
2023-05-24T01:14:41.692Z,13.70
2023-05-24T01:16:55.283Z,12.35
2023-05-24T01:19:06.247Z,13.45
2023-05-24T01:21:28.780Z,13.30
2023-05-24T01:23:50.099Z,14.43
2023-05-24T02:16:59.758Z,12.88
2023-05-24T02:19:07.817Z,13.07
2023-05-24T02:21:14.954Z,15.23
2023-05-24T02:23:23.357Z,14.90
2023-05-24T02:25:30.493Z,13.80
2023-05-24T02:27:37.777Z,16.20
2023-05-24T02:29:44.817Z,14.38
2023-05-24T02:31:57.472Z,14.05
2023-05-24T02:34:04.752Z,16.65
2023-05-24T02:36:12.495Z,17.27
2023-05-24T02:38:19.472Z,18.48
2023-05-24T02:40:26.654Z,17.27
2023-05-24T02:42:33.534Z,18.60
2023-05-24T02:44:41.377Z,17.80
2023-05-24T02:46:48.863Z,17.58
2023-05-24T02:48:58.093Z,18.92
2023-05-24T02:51:05.783Z,17.85
2023-05-24T02:53:13.378Z,18.90
2023-05-24T02:55:20.571Z,18.33
2023-05-24T02:57:28.151Z,14.35
2023-05-24T02:59:35.180Z,13.80
2023-05-24T03:01:42.215Z,14.98
2023-05-24T03:03:49.197Z,14.63
2023-05-24T03:05:58.256Z,14.68
2023-05-24T03:08:05.381Z,13.95
2023-05-24T03:10:15.837Z,18.77
2023-05-24T03:12:23.430Z,18.67
2023-05-24T03:14:30.814Z,16.95
2023-05-24T03:16:37.943Z,20.73
2023-05-24T03:18:45.503Z,20.02
2023-05-24T03:20:52.627Z,19.75
2023-05-24T03:23:01.766Z,22.48
2023-05-24T03:25:10.738Z,18.90
2023-05-24T03:27:18.364Z,20.67
2023-05-24T03:29:25.293Z,19.55
2023-05-24T03:31:33.953Z,20.10
2023-05-24T03:33:41.112Z,19.92
2023-05-24T03:35:49.043Z,19.27
2023-05-24T03:37:56.137Z,20.08
2023-05-24T03:40:05.768Z,19.85
2023-05-24T03:42:32.955Z,19.05
2023-05-24T03:44:41.777Z,19.95
2023-05-24T03:46:49.032Z,19.65
2023-05-24T03:48:56.348Z,19.55
2023-05-24T03:51:03.378Z,19.75
2023-05-24T03:53:10.669Z,17.75
2023-05-24T03:55:20.204Z,18.70
2023-05-24T03:57:29.215Z,18.48
2023-05-24T03:59:37.730Z,18.02
2023-05-24T04:01:46.968Z,18.65
2023-05-24T04:03:57.484Z,17.52
2023-05-24T04:06:05.573Z,17.47
2023-05-24T04:08:13.425Z,19.15
2023-05-24T04:10:23.032Z,20.88
2023-05-24T04:12:30.041Z,16.98
2023-05-24T04:14:37.422Z,17.48
2023-05-24T04:16:46.123Z,11.45
2023-05-24T04:18:53.813Z,11.07
2023-05-24T04:21:01.431Z,11.70
2023-05-24T04:23:16.185Z,11.45
2023-05-24T04:25:26.125Z,10.55
2023-05-24T04:27:34.546Z,10.20
2023-05-24T04:29:43.210Z,17.88
2023-05-24T04:31:50.461Z,15.60
2023-05-24T04:33:57.529Z,18.83
2023-05-24T04:36:04.857Z,17.50
2023-05-24T04:38:13.689Z,17.48
2023-05-24T04:40:21.954Z,18.08
2023-05-24T04:42:33.269Z,17.90
2023-05-24T04:46:46.705Z,17.70
2023-05-24T04:48:57.987Z,17.65
2023-05-24T04:51:05.532Z,18.50
2023-05-24T04:53:13.433Z,18.77
2023-05-24T04:55:20.406Z,19.13
2023-05-24T04:57:29.375Z,17.48
2023-05-24T04:59:36.352Z,19.17
2023-05-24T05:01:43.945Z,18.67
2023-05-24T05:03:53.951Z,19.63
2023-05-24T05:06:01.127Z,22.27
2023-05-24T05:08:09.477Z,19.10
2023-05-24T05:10:16.763Z,20.50
2023-05-24T05:12:23.792Z,16.67
2023-05-24T05:14:32.557Z,19.88
2023-05-24T05:16:39.856Z,19.15
2023-05-24T05:18:47.073Z,20.70
2023-05-24T05:20:54.557Z,11.98
2023-05-24T05:23:01.916Z,10.15
2023-05-24T05:25:09.707Z,11.63
2023-05-24T05:27:16.876Z,11.38
2023-05-24T05:29:24.433Z,11.05
2023-05-24T05:31:33.998Z,11.40
2023-05-24T05:33:40.911Z,10.35
2023-05-24T05:35:48.217Z,10.38
2023-05-24T05:37:59.587Z,10.68
2023-05-24T05:40:07.181Z,12.20
2023-05-24T05:42:14.207Z,12.13
2023-05-24T05:44:22.312Z,12.55
2023-05-24T05:46:29.430Z,10.27
2023-05-24T05:48:38.317Z,12.68
2023-05-24T05:50:45.354Z,21.27
2023-05-24T05:52:52.485Z,21.02
2023-05-24T05:55:00.521Z,19.38
2023-05-24T05:57:10.415Z,20.02
2023-05-24T05:59:18.431Z,21.55
2023-05-24T06:01:25.768Z,19.35
2023-05-24T06:03:32.864Z,20.63
2023-05-24T06:05:42.126Z,21.02
2023-05-24T06:07:49.103Z,20.25
2023-05-24T06:09:56.425Z,17.58
2023-05-24T06:12:03.467Z,18.38
2023-05-24T06:14:10.740Z,17.48
2023-05-24T06:16:17.753Z,13.70
2023-05-24T06:18:25.167Z,11.95
2023-05-24T06:20:32.227Z,11.85
2023-05-24T06:22:44.070Z,14.32
2023-05-24T06:24:51.107Z,14.10
2023-05-24T06:26:59.109Z,12.63
2023-05-24T06:29:06.293Z,12.63
2023-05-24T06:31:13.540Z,13.52
2023-05-24T06:33:20.656Z,12.25
2023-05-24T06:35:27.934Z,11.57
2023-05-24T06:37:34.920Z,10.65
2023-05-24T06:39:45.705Z,11.43
2023-05-24T06:41:53.345Z,11.40
2023-05-24T06:44:04.495Z,11.20
2023-05-24T06:46:11.571Z,10.50
2023-05-24T06:48:18.984Z,12.05
2023-05-24T06:50:30.082Z,58.80
2023-05-24T06:52:38.760Z,27.95
2023-05-24T06:54:48.706Z,48.00
2023-05-24T06:56:55.842Z,31.63
2023-05-24T06:59:03.334Z,29.75
2023-05-24T07:01:10.671Z,27.90
2023-05-24T07:03:17.743Z,19.85
2023-05-24T07:05:25.224Z,15.02
2023-05-24T07:07:35.372Z,14.75
2023-05-24T07:09:44.300Z,15.38
2023-05-24T07:11:52.910Z,17.17
2023-05-24T07:14:00.799Z,14.65
2023-05-24T07:16:08.097Z,16.55
2023-05-24T07:18:15.426Z,17.50
2023-05-24T07:20:22.690Z,17.05
2023-05-24T07:22:44.228Z,15.32
2023-05-24T07:24:51.211Z,13.65
2023-05-24T07:27:00.380Z,17.73
2023-05-24T07:29:07.458Z,14.95
2023-05-24T07:31:15.111Z,13.27
2023-05-24T07:33:22.139Z,14.35
2023-05-24T07:35:29.819Z,15.52
2023-05-24T07:37:37.004Z,15.32
2023-05-24T07:39:44.459Z,13.30
2023-05-24T07:41:52.087Z,14.70
2023-05-24T07:44:01.066Z,15.50
2023-05-24T07:46:08.624Z,13.60
2023-05-24T07:48:16.008Z,14.85
2023-05-24T07:50:23.977Z,15.90
2023-05-24T07:52:31.178Z,12.63
2023-05-24T07:54:38.462Z,14.38
2023-05-24T07:56:46.053Z,16.17
2023-05-24T07:59:02.592Z,17.13
2023-05-24T08:01:11.674Z,17.15
2023-05-24T08:03:18.965Z,13.52
2023-05-24T08:05:26.404Z,14.85
2023-05-24T08:07:33.422Z,13.50
2023-05-24T08:09:41.335Z,11.55
2023-05-24T08:11:48.300Z,11.38
2023-05-24T08:13:55.788Z,11.65
2023-05-24T08:16:02.980Z,13.50
2023-05-24T08:18:12.000Z,11.65
2023-05-24T08:20:19.268Z,11.02
2023-05-24T08:22:27.073Z,11.38
2023-05-24T08:24:34.103Z,12.88
2023-05-24T08:26:41.434Z,14.15
2023-05-24T08:28:48.422Z,15.13
2023-05-24T08:30:55.599Z,11.57
2023-05-24T08:33:04.192Z,11.40
2023-05-24T08:35:20.736Z,13.40
2023-05-24T08:37:29.565Z,10.63
2023-05-24T08:39:36.821Z,12.05
2023-05-24T08:41:49.554Z,11.45
2023-05-24T08:44:05.869Z,12.50
2023-05-24T08:46:14.163Z,10.07
2023-05-24T08:48:21.757Z,11.05
2023-05-24T08:50:36.493Z,12.02
2023-05-24T08:52:43.974Z,11.25
2023-05-24T08:54:52.397Z,12.90
2023-05-24T08:57:00.234Z,12.98
2023-05-24T08:59:07.674Z,12.60
2023-05-24T09:01:16.409Z,12.02
2023-05-24T09:03:25.221Z,11.40
2023-05-24T09:05:35.676Z,12.55
2023-05-24T09:07:43.249Z,13.30
2023-05-24T09:09:53.563Z,12.60
2023-05-24T09:12:04.785Z,12.48
2023-05-24T09:14:12.489Z,13.27
2023-05-24T09:16:20.048Z,13.02
2023-05-24T09:18:27.455Z,13.05
2023-05-24T09:20:36.342Z,12.60
2023-05-24T09:22:46.220Z,11.75
2023-05-24T09:24:53.454Z,14.02
2023-05-24T09:27:09.691Z,14.23
2023-05-24T09:29:16.929Z,13.70
2023-05-24T09:31:35.039Z,13.90
2023-05-24T09:33:43.169Z,12.90
2023-05-24T09:35:52.605Z,13.32
2023-05-24T09:38:01.319Z,13.40
2023-05-24T09:40:10.361Z,13.55
2023-05-24T09:42:22.084Z,13.75
2023-05-24T09:44:29.787Z,13.82
2023-05-24T09:46:41.086Z,13.07
2023-05-24T09:49:00.385Z,12.90
2023-05-24T09:51:11.671Z,13.40
2023-05-24T09:53:21.756Z,12.45
2023-05-24T09:55:30.590Z,13.52
2023-05-24T09:57:37.644Z,13.13
2023-05-24T09:59:45.610Z,13.65
2023-05-24T10:01:57.094Z,13.23
2023-05-24T10:04:10.421Z,13.35
2023-05-24T10:06:19.795Z,11.50
2023-05-24T10:08:27.635Z,11.15
2023-05-24T10:10:36.364Z,10.95
2023-05-24T10:12:47.857Z,11.30
2023-05-24T10:14:58.618Z,11.95
2023-05-24T10:17:07.018Z,12.52
2023-05-24T10:19:14.114Z,12.10
2023-05-24T10:21:25.652Z,12.32
2023-05-24T10:23:35.578Z,12.13
2023-05-24T10:25:58.690Z,12.07
2023-05-24T10:28:08.030Z,12.43
2023-05-24T10:30:19.955Z,11.95
2023-05-24T10:34:34.118Z,11.68
2023-05-24T10:36:45.239Z,12.40
2023-05-24T10:38:53.303Z,12.63
2023-05-24T10:41:00.933Z,12.77
2023-05-24T10:43:09.189Z,12.80
2023-05-24T10:45:38.236Z,11.85
2023-05-24T10:47:45.588Z,11.43
2023-05-24T10:49:54.247Z,12.48
2023-05-24T10:52:11.175Z,10.88
2023-05-24T10:54:19.720Z,10.82
2023-05-24T10:56:27.913Z,11.77
2023-05-24T10:59:03.465Z,10.40
2023-05-24T11:01:17.053Z,10.90
2023-05-24T11:03:26.579Z,12.02
2023-05-24T11:05:38.233Z,11.57
2023-05-24T11:07:47.861Z,11.07
2023-05-24T11:10:01.320Z,12.90
2023-05-24T11:12:10.873Z,12.45
2023-05-24T11:14:21.448Z,11.52
2023-05-24T11:16:39.573Z,11.30
2023-05-24T11:18:59.190Z,11.18
2023-05-24T11:21:07.856Z,11.30
2023-05-24T11:23:19.252Z,12.15
2023-05-24T11:25:26.172Z,11.95
2023-05-24T11:27:34.420Z,12.38
2023-05-24T11:29:45.991Z,13.93
2023-05-24T11:31:54.382Z,13.98
2023-05-24T11:34:03.144Z,15.23
2023-05-24T11:36:11.966Z,15.13
2023-05-24T11:38:24.772Z,13.88
2023-05-24T11:40:32.715Z,14.65
2023-05-24T11:42:40.516Z,14.50
2023-05-24T11:44:48.005Z,14.88
2023-05-24T11:47:01.999Z,17.33
2023-05-24T11:49:09.631Z,18.33
2023-05-24T11:51:16.570Z,18.80
2023-05-24T11:53:26.108Z,18.95
2023-05-24T11:55:33.509Z,18.05
2023-05-24T11:57:42.352Z,17.55
2023-05-24T11:59:49.748Z,16.60
2023-05-24T12:02:03.084Z,18.02
2023-05-24T12:04:11.203Z,17.23
2023-05-24T12:06:18.405Z,16.25
2023-05-24T12:08:27.576Z,15.55
2023-05-24T12:10:35.600Z,15.98
2023-05-24T12:12:47.841Z,15.43
2023-05-24T12:14:59.773Z,15.77
2023-05-24T12:17:06.866Z,16.00
2023-05-24T12:21:36.180Z,19.45
2023-05-24T12:23:44.994Z,17.90
2023-05-24T12:25:52.023Z,20.30
2023-05-24T12:27:59.661Z,23.25
2023-05-24T12:30:12.219Z,29.00
2023-05-24T12:32:20.582Z,42.17
2023-05-24T12:34:28.932Z,37.63
2023-05-24T12:36:37.961Z,32.50
2023-05-24T12:38:46.521Z,34.83
2023-05-24T12:41:07.991Z,28.10
2023-05-24T12:43:19.886Z,26.17
2023-05-24T12:45:27.890Z,24.25
2023-05-24T12:47:34.857Z,24.40
2023-05-24T12:49:42.188Z,21.70
2023-05-24T12:51:49.615Z,18.58
2023-05-24T12:53:58.931Z,17.08
2023-05-24T12:56:06.044Z,17.77
2023-05-24T12:58:17.509Z,18.58
2023-05-24T13:00:26.041Z,18.73
2023-05-24T13:02:33.394Z,21.83
2023-05-24T13:04:40.291Z,24.60
2023-05-24T13:06:47.738Z,22.10
2023-05-24T13:08:55.066Z,20.50
2023-05-24T13:11:04.606Z,21.77
2023-05-24T13:13:11.543Z,21.85
2023-05-24T13:15:20.619Z,21.55
2023-05-24T13:17:27.613Z,22.65
2023-05-24T13:19:34.980Z,21.00
2023-05-24T13:21:42.113Z,20.58
2023-05-24T13:23:49.594Z,21.13
2023-05-24T13:25:56.775Z,19.38
2023-05-24T13:28:06.000Z,19.08
2023-05-24T13:30:13.864Z,20.90
2023-05-24T13:32:21.179Z,19.10
2023-05-24T13:34:28.625Z,20.58
2023-05-24T13:36:35.801Z,18.83
2023-05-24T13:38:42.783Z,17.95
2023-05-24T13:40:50.119Z,18.92
2023-05-24T13:42:58.380Z,20.17
2023-05-24T13:45:07.865Z,22.13
2023-05-24T13:47:23.629Z,23.17
2023-05-24T13:49:38.973Z,22.73
2023-05-24T13:51:46.067Z,22.67
2023-05-24T13:53:53.337Z,22.30
2023-05-24T13:56:01.594Z,21.70
2023-05-24T13:58:09.245Z,20.95
2023-05-24T14:00:20.161Z,21.25
2023-05-24T14:02:27.257Z,21.58
2023-05-24T14:04:34.491Z,19.65
2023-05-24T14:06:41.547Z,18.60
2023-05-24T14:08:48.888Z,18.02
2023-05-24T14:10:55.848Z,17.48
2023-05-24T14:13:13.979Z,16.52
2023-05-24T14:15:32.431Z,16.45
2023-05-24T14:17:39.675Z,16.05
2023-05-24T14:19:46.692Z,17.13
2023-05-24T14:21:53.773Z,16.42
2023-05-24T14:24:01.104Z,16.20
2023-05-24T14:26:07.988Z,14.93
2023-05-24T14:28:16.295Z,15.40
2023-05-24T14:30:23.731Z,14.98
2023-05-24T14:32:32.825Z,15.05
2023-05-24T14:34:40.000Z,14.70
2023-05-24T14:36:49.186Z,14.15
2023-05-24T14:38:56.401Z,14.07
2023-05-24T14:41:03.575Z,14.07
2023-05-24T14:43:11.435Z,13.80
2023-05-24T14:45:20.248Z,13.10
2023-05-24T14:47:27.280Z,14.02
2023-05-24T14:49:36.252Z,13.48
2023-05-24T14:51:43.276Z,13.70
2023-05-24T14:53:50.916Z,13.60
2023-05-24T14:55:58.098Z,13.02
2023-05-24T14:58:05.413Z,13.57
2023-05-24T15:00:14.105Z,12.75
2023-05-24T15:02:21.467Z,12.43
2023-05-24T15:04:29.297Z,12.40
2023-05-24T15:06:38.362Z,11.77
2023-05-24T15:08:45.619Z,12.55
2023-05-24T15:10:52.680Z,11.82
2023-05-24T15:13:00.123Z,11.18
2023-05-24T15:15:08.013Z,11.85
2023-05-24T15:17:15.401Z,10.80
2023-05-24T15:19:22.578Z,11.10
2023-05-24T15:21:29.591Z,11.57
2023-05-24T15:23:38.997Z,11.05
2023-05-24T15:25:47.394Z,11.65
2023-05-24T15:27:54.697Z,11.90
2023-05-24T15:30:01.677Z,11.50
2023-05-24T15:32:09.298Z,12.05
2023-05-24T15:34:16.287Z,11.35
2023-05-24T15:36:23.618Z,11.40
2023-05-24T15:38:30.700Z,12.23
2023-05-24T15:40:48.327Z,11.20
2023-05-24T15:42:55.605Z,11.30
2023-05-24T15:45:02.754Z,12.35
2023-05-24T15:47:10.187Z,11.00
2023-05-24T15:49:17.612Z,11.25
2023-05-24T15:52:01.588Z,11.77
2023-05-24T15:53:52.156Z,10.88
2023-05-24T15:56:00.966Z,11.07
2023-05-24T15:58:08.252Z,8.95
2023-05-24T16:00:16.353Z,7.57
2023-05-24T16:02:23.478Z,7.50
2023-05-24T16:04:30.610Z,7.95
2023-05-24T16:06:37.909Z,7.22
2023-05-24T16:08:44.828Z,6.25
2023-05-24T16:10:52.110Z,6.20
2023-05-24T16:13:01.504Z,6.00
2023-05-24T16:15:09.799Z,5.65
2023-05-24T16:17:17.123Z,5.10
2023-05-24T16:19:24.521Z,4.60
2023-05-24T16:21:31.552Z,4.30
2023-05-24T16:23:38.723Z,4.18
2023-05-24T16:25:47.298Z,4.22
2023-05-24T16:27:56.579Z,4.43
2023-05-24T16:30:05.290Z,4.43
2023-05-24T16:32:12.590Z,4.00
2023-05-24T16:34:19.863Z,4.82
2023-05-24T16:36:28.012Z,4.15
2023-05-24T16:38:35.867Z,5.30
2023-05-24T16:40:43.819Z,4.93
2023-05-24T16:42:52.387Z,5.45
2023-05-24T16:45:00.016Z,5.78
2023-05-24T16:47:09.233Z,6.10
2023-05-24T16:49:16.895Z,5.65
2023-05-24T16:51:24.230Z,4.85
2023-05-24T16:53:31.919Z,5.30
2023-05-24T16:55:38.903Z,5.50
2023-05-24T16:57:46.333Z,5.57
2023-05-24T16:59:53.274Z,5.40
2023-05-24T17:02:00.818Z,5.05
2023-05-24T17:04:09.769Z,5.38
2023-05-24T17:06:17.059Z,5.75
2023-05-24T17:08:24.697Z,5.97
2023-05-24T17:10:32.298Z,5.68
2023-05-24T17:12:39.723Z,5.95
2023-05-24T17:14:47.019Z,5.57
2023-05-24T17:16:53.959Z,5.93
2023-05-24T17:19:01.491Z,5.90
2023-05-24T17:21:10.866Z,5.30
2023-05-24T17:23:19.692Z,5.55
2023-05-24T17:25:28.146Z,5.20
2023-05-24T17:27:35.225Z,5.82
2023-05-24T17:29:48.857Z,5.40
2023-05-24T17:31:55.987Z,5.63
2023-05-24T17:34:03.040Z,5.35
2023-05-24T17:36:12.161Z,4.93
2023-05-24T17:38:19.476Z,4.90
2023-05-24T17:40:26.712Z,5.05
2023-05-24T17:42:33.628Z,5.25
2023-05-24T17:44:40.725Z,5.88
2023-05-24T17:46:50.714Z,5.32
2023-05-24T17:48:58.101Z,5.15
2023-05-24T17:51:05.559Z,5.85
2023-05-24T17:53:30.376Z,5.45
2023-05-24T17:55:38.547Z,5.25
2023-05-24T17:57:56.171Z,5.30
2023-05-24T18:00:03.389Z,5.20
2023-05-24T18:02:10.824Z,5.28
2023-05-24T18:04:17.959Z,5.13
2023-05-24T18:06:25.196Z,4.90
2023-05-24T18:08:34.938Z,4.80
2023-05-24T18:10:42.116Z,5.18
2023-05-24T18:12:49.091Z,5.05
2023-05-24T18:14:56.476Z,4.95
2023-05-24T18:17:03.487Z,5.43
2023-05-24T18:19:10.739Z,5.00
2023-05-24T18:21:17.674Z,5.63
2023-05-24T18:23:24.940Z,5.03
2023-05-24T18:25:33.504Z,5.25
2023-05-24T18:27:40.748Z,4.72
2023-05-24T18:29:47.627Z,5.00
2023-05-24T18:31:55.180Z,5.20
2023-05-24T18:34:02.223Z,5.22
2023-05-24T18:36:10.144Z,4.85
2023-05-24T18:38:17.583Z,5.28
2023-05-24T18:40:25.426Z,4.95
2023-05-24T18:42:34.257Z,5.72
2023-05-24T18:44:41.630Z,5.15
2023-05-24T18:46:48.582Z,5.20
2023-05-24T18:48:55.788Z,4.93
2023-05-24T18:51:02.819Z,4.53
2023-05-24T18:53:10.618Z,5.18
2023-05-24T18:55:17.541Z,4.82
2023-05-24T18:57:24.868Z,4.43
2023-05-24T18:59:35.481Z,4.93
2023-05-24T19:01:42.747Z,5.40
2023-05-24T19:03:49.953Z,5.57
2023-05-24T19:05:56.994Z,5.40
2023-05-24T19:08:04.107Z,5.05
2023-05-24T19:10:12.212Z,4.95
2023-05-24T19:12:19.659Z,5.03
2023-05-24T19:14:26.790Z,5.07
2023-05-24T19:16:35.911Z,5.25
2023-05-24T19:18:44.274Z,4.63
2023-05-24T19:20:52.634Z,5.15
2023-05-24T19:22:59.663Z,5.07
2023-05-24T19:25:07.196Z,5.18
2023-05-24T19:27:14.274Z,5.20
2023-05-24T19:29:21.923Z,5.78
2023-05-24T19:31:30.657Z,5.15
2023-05-24T19:33:48.549Z,4.80
2023-05-24T19:36:07.173Z,4.78
2023-05-24T19:38:18.647Z,5.30
2023-05-24T19:40:25.572Z,4.45
2023-05-24T19:42:33.015Z,4.90
2023-05-24T19:44:39.931Z,5.07
2023-05-24T19:46:47.589Z,5.20
2023-05-24T19:48:56.416Z,4.22
2023-05-24T19:51:04.141Z,4.47
2023-05-24T19:53:11.172Z,5.15
2023-05-24T19:55:18.707Z,4.75
2023-05-24T19:57:26.009Z,4.90
2023-05-24T19:59:33.228Z,5.15
2023-05-24T20:01:40.162Z,4.82
2023-05-24T20:03:49.720Z,4.85
2023-05-24T20:05:58.816Z,4.90
2023-05-24T20:08:06.203Z,5.45
2023-05-24T20:10:14.209Z,4.60
2023-05-24T20:12:21.239Z,5.78
2023-05-24T20:14:29.244Z,4.47
2023-05-24T20:16:36.818Z,5.63
2023-05-24T20:18:43.907Z,4.97
2023-05-24T20:20:51.245Z,5.70
2023-05-24T20:23:00.027Z,5.43
2023-05-24T20:25:07.398Z,6.28
2023-05-24T20:27:14.790Z,6.38
2023-05-24T20:29:21.822Z,6.00
2023-05-24T20:31:29.401Z,6.35
2023-05-24T20:33:39.057Z,6.22
2023-05-24T20:35:46.430Z,5.80
2023-05-24T20:37:53.299Z,5.93
2023-05-24T20:40:02.132Z,5.85
2023-05-24T20:42:09.506Z,5.78
2023-05-24T20:44:16.749Z,4.70
2023-05-24T20:46:23.905Z,5.15
2023-05-24T20:48:31.203Z,5.60
2023-05-24T20:50:38.287Z,5.40
2023-05-24T20:52:45.781Z,4.97
2023-05-24T20:54:53.885Z,5.00
2023-05-24T20:57:02.660Z,5.55
2023-05-24T20:59:09.896Z,5.00
2023-05-24T21:01:17.719Z,4.43
2023-05-24T21:03:25.165Z,4.88
2023-05-24T21:05:32.136Z,4.68
2023-05-24T21:07:39.645Z,4.90
2023-05-24T21:09:46.557Z,5.80
2023-05-24T21:11:53.908Z,5.65
2023-05-24T21:14:02.662Z,5.80
2023-05-24T21:16:10.157Z,5.82
2023-05-24T21:18:17.136Z,7.05
2023-05-24T21:20:24.664Z,6.43
2023-05-24T21:22:31.744Z,6.63
2023-05-24T21:24:39.030Z,6.47
2023-05-24T21:26:46.058Z,6.95
2023-05-24T21:28:53.443Z,6.68
2023-05-24T21:31:02.556Z,8.02
2023-05-24T21:33:09.610Z,7.82
2023-05-24T21:35:17.036Z,7.32
2023-05-24T21:37:24.024Z,6.60
2023-05-24T21:39:31.856Z,7.10
2023-05-24T21:41:40.583Z,7.88
2023-05-24T21:43:47.556Z,9.93
2023-05-24T21:45:55.008Z,9.75
2023-05-24T21:48:03.700Z,8.35
2023-05-24T21:50:11.667Z,8.65
2023-05-24T21:52:18.582Z,8.13
2023-05-24T21:54:25.717Z,8.23
2023-05-24T21:56:32.795Z,7.45
2023-05-24T21:58:41.569Z,7.10
2023-05-24T22:00:49.103Z,7.25
2023-05-24T22:02:56.338Z,7.60
2023-05-24T22:05:06.333Z,8.05
2023-05-24T22:07:13.467Z,8.60
2023-05-24T22:09:20.800Z,9.50
2023-05-24T22:11:27.673Z,10.45
2023-05-24T22:13:34.816Z,11.27
2023-05-24T22:15:41.892Z,10.27
2023-05-24T22:17:49.255Z,10.68
2023-05-24T22:19:56.341Z,11.20
2023-05-24T22:22:05.987Z,10.60
2023-05-24T22:24:13.838Z,9.35
2023-05-24T22:26:20.865Z,10.10
2023-05-24T22:28:27.889Z,9.70
2023-05-24T22:30:36.353Z,9.98
2023-05-24T22:32:43.524Z,10.35
2023-05-24T22:34:50.609Z,9.40
2023-05-24T22:36:58.419Z,9.48
2023-05-24T22:39:08.361Z,10.13
2023-05-24T22:41:15.539Z,10.50
2023-05-24T22:43:22.832Z,10.40
2023-05-24T22:45:29.697Z,9.50
2023-05-24T22:47:37.516Z,8.25
2023-05-24T22:49:44.477Z,8.48
2023-05-24T22:51:54.373Z,9.25
2023-05-24T22:54:01.404Z,8.88
2023-05-24T22:56:11.544Z,10.50
2023-05-24T22:58:18.567Z,10.10
2023-05-24T23:00:25.909Z,10.13
2023-05-24T23:02:32.991Z,9.48
2023-05-24T23:04:40.397Z,9.85
2023-05-24T23:06:48.471Z,9.00
2023-05-24T23:08:56.426Z,9.57
2023-05-24T23:11:11.250Z,9.13
2023-05-24T23:13:20.480Z,9.38
2023-05-24T23:15:30.213Z,8.30
2023-05-24T23:17:37.137Z,9.35
2023-05-24T23:19:45.088Z,8.70
2023-05-24T23:21:53.600Z,8.90
2023-05-24T23:24:00.931Z,8.57
2023-05-24T23:26:07.801Z,7.88
2023-05-24T23:28:15.290Z,6.45
2023-05-24T23:30:24.212Z,10.52
2023-05-24T23:32:31.538Z,12.73
2023-05-24T23:34:38.634Z,7.03
2023-05-24T23:36:45.919Z,8.32
2023-05-24T23:38:52.952Z,8.75
2023-05-24T23:41:00.112Z,17.30
2023-05-24T23:43:07.526Z,16.98
2023-05-24T23:45:16.392Z,16.15
2023-05-24T23:47:25.191Z,17.45
2023-05-24T23:49:32.743Z,7.80
2023-05-24T23:51:39.981Z,8.38
2023-05-24T23:53:47.213Z,9.25
2023-05-24T23:55:54.246Z,9.00
2023-05-24T23:58:01.570Z,8.20
